BWU weather

Sydney Bankstown Airport
Sydney, New South Wales, Australia

Public forecast

Using degrees Celsius for public forecast. Weather courtesy of forecast.io.

METAR (pilot weather report)

Closest report is Sydney Kingsford Smith International Airport, 9.5 nm (17.6 km) E. Retrieved 2017/05/25 12:00 UTC (11 minutes ago):

YSSY 251200Z 32006KT CAVOK 15/10 Q1020 NOSIG

TAF (pilot weather forecast)

Closest forecast is Sydney Kingsford Smith International Airport, 9.5 nm (17.6 km) E. Retrieved 2017/05/25 12:00 UTC (11 minutes ago):

TAF YSSY 251108Z 2512/2618 29008KT CAVOK FM260000 24008KT CAVOK FM260200 19008KT CAVOK FM260700 17008KT 9999 SCT030 FM261600 29005KT 9999 SCT020